Time,TemperatureF,DewpointF,PressureIn,WindDirection,WindDirectionDegrees,WindSpeedMPH,WindSpeedGustMPH,Humidity,HourlyPrecipIn,Conditions,Clouds,dailyrainin,SoftwareType,DateUTC
2013-10-28 00:02:00,26.6,22.4,30.26,ENE,68,10.4,10.4,84,0.00,OVC,,0.00,WeatherDisplay:10.37,2013-10-28 06:02:00,
2013-10-28 00:07:00,26.2,22.0,30.26,NE,45,8.4,10.4,84,0.00,OVC,,0.00,WeatherDisplay:10.37,2013-10-28 06:07:00,
2013-10-28 00:12:00,26.2,22.0,30.26,NE,45,6.7,12.7,84,0.00,OVC,,0.00,WeatherDisplay:10.37,2013-10-28 06:12:00,
2013-10-28 00:17:00,26.1,21.9,30.27,SE,135,9.4,10.4,84,0.00,OVC,,0.00,WeatherDisplay:10.37,2013-10-28 06:17:00,
2013-10-28 00:22:00,26.1,21.9,30.27,NE,45,6.3,10.4,84,0.00,OVC,,0.00,WeatherDisplay:10.37,2013-10-28 06:22:00,
2013-10-28 00:27:00,26.1,21.9,30.27,ESE,112,3.7,10.9,84,0.00,OVC,,0.00,WeatherDisplay:10.37,2013-10-28 06:27:00,
2013-10-28 00:32:00,25.9,21.7,30.27,SE,135,5.7,7.8,84,0.00,OVC,,0.00,WeatherDisplay:10.37,2013-10-28 06:32:00,
2013-10-28 00:37:00,25.7,21.5,30.27,ENE,68,7.3,7.3,84,0.00,OVC,,0.00,WeatherDisplay:10.37,2013-10-28 06:37:00,
2013-10-28 00:42:00,25.5,21.3,30.27,ESE,112,7.0,8.1,84,0.00,OVC,,0.00,WeatherDisplay:10.37,2013-10-28 06:42:00,
2013-10-28 00:47:00,25.5,21.3,30.27,ESE,112,5.5,8.8,84,0.00,OVC,,0.00,WeatherDisplay:10.37,2013-10-28 06:47:00,
2013-10-28 00:52:00,25.5,21.3,30.28,ESE,112,5.5,9.2,84,0.00,OVC,,0.00,WeatherDisplay:10.37,2013-10-28 06:52:00,
2013-10-28 00:57:00,25.3,21.1,30.28,East,90,7.1,10.4,84,0.00,OVC,,0.00,WeatherDisplay:10.37,2013-10-28 06:57:00,
2013-10-28 01:02:00,25.2,21.0,30.28,East,90,5.0,6.9,84,0.00,OVC,,0.00,WeatherDisplay:10.37,2013-10-28 07:02:00,
2013-10-28 01:07:00,25.2,21.0,30.30,East,90,5.1,6.9,84,0.00,OVC,,0.00,WeatherDisplay:10.37,2013-10-28 07:07:00,
2013-10-28 01:12:00,25.2,21.0,30.30,ESE,112,7.1,8.8,84,0.00,OVC,,0.00,WeatherDisplay:10.37,2013-10-28 07:12:00,
2013-10-28 01:17:00,25.0,20.8,30.30,SE,135,6.1,10.4,84,0.00,OVC,,0.00,WeatherDisplay:10.37,2013-10-28 07:17:00,
2013-10-28 01:22:00,25.0,20.8,30.30,ESE,112,6.8,9.2,84,0.00,OVC,,0.00,WeatherDisplay:10.37,2013-10-28 07:22:00,
2013-10-28 01:27:00,25.0,20.8,30.30,ESE,112,5.6,6.9,84,0.00,OVC,,0.00,WeatherDisplay:10.37,2013-10-28 07:27:00,
2013-10-28 01:32:00,25.0,20.8,30.30,ESE,112,6.3,9.2,84,0.00,OVC,,0.00,WeatherDisplay:10.37,2013-10-28 07:32:00,
2013-10-28 01:37:00,25.0,20.8,30.30,East,90,3.0,8.1,84,0.00,OVC,,0.00,WeatherDisplay:10.37,2013-10-28 07:37:00,
2013-10-28 01:42:00,24.8,20.7,30.30,East,90,5.9,10.4,84,0.00,OVC,,0.00,WeatherDisplay:10.37,2013-10-28 07:42:00,
2013-10-28 01:47:00,24.6,20.5,30.30,NE,45,6.3,9.2,84,0.00,OVC,,0.00,WeatherDisplay:10.37,2013-10-28 07:47:00,
2013-10-28 01:52:00,24.6,20.5,30.30,NNE,22,5.7,6.9,84,0.00,OVC,,0.00,WeatherDisplay:10.37,2013-10-28 07:52:00,
2013-10-28 01:57:00,24.6,20.5,30.30,ENE,68,7.6,10.4,84,0.00,OVC,,0.00,WeatherDisplay:10.37,2013-10-28 07:57:00,
2013-10-28 02:02:00,24.6,20.5,30.30,West,270,6.3,8.1,84,0.00,OVC,,0.00,WeatherDisplay:10.37,2013-10-28 08:02:00,
2013-10-28 02:07:00,24.4,20.3,30.31,ESE,112,6.7,10.4,84,0.00,OVC,,0.00,WeatherDisplay:10.37,2013-10-28 08:07:00,
2013-10-28 02:12:00,24.3,19.9,30.31,ENE,68,6.6,8.1,83,0.00,OVC,,0.00,WeatherDisplay:10.37,2013-10-28 08:12:00,
2013-10-28 02:17:00,24.1,19.7,30.31,NNE,22,8.2,10.4,83,0.00,OVC,,0.00,WeatherDisplay:10.37,2013-10-28 08:17:00,
2013-10-28 02:22:00,24.1,19.7,30.31,SSE,158,4.5,6.9,83,0.00,OVC,,0.00,WeatherDisplay:10.37,2013-10-28 08:22:00,
2013-10-28 02:28:00,24.1,19.7,30.32,NNE,22,3.7,3.7,83,0.00,OVC,,0.00,WeatherDisplay:10.37,2013-10-28 08:28:00,
2013-10-28 02:33:00,23.9,19.5,30.32,ESE,112,5.9,8.1,83,0.00,OVC,,0.00,WeatherDisplay:10.37,2013-10-28 08:33:00,
2013-10-28 02:38:00,23.7,19.3,30.32,ESE,112,7.5,8.1,83,0.00,OVC,,0.00,WeatherDisplay:10.37,2013-10-28 08:38:00,
2013-10-28 02:43:00,23.7,19.3,30.32,ENE,68,7.5,8.1,83,0.00,OVC,,0.00,WeatherDisplay:10.37,2013-10-28 08:43:00,
2013-10-28 02:48:00,23.5,19.1,30.32,ENE,68,9.4,10.4,83,0.00,OVC,,0.00,WeatherDisplay:10.37,2013-10-28 08:48:00,
2013-10-28 02:53:00,23.4,19.0,30.33,NE,45,8.2,11.5,83,0.00,OVC,,0.00,WeatherDisplay:10.37,2013-10-28 08:53:00,
2013-10-28 02:58:00,23.4,19.0,30.33,ENE,68,3.5,6.9,83,0.00,OVC,,0.00,WeatherDisplay:10.37,2013-10-28 08:58:00,
2013-10-28 03:03:00,23.4,19.0,30.33,East,90,4.1,7.8,83,0.00,OVC,,0.00,WeatherDisplay:10.37,2013-10-28 09:03:00,
2013-10-28 03:08:00,23.4,19.0,30.33,NE,45,5.8,5.8,83,0.00,OVC,,0.00,WeatherDisplay:10.37,2013-10-28 09:08:00,
2013-10-28 03:13:00,23.2,18.8,30.33,ENE,68,5.9,8.1,83,0.00,OVC,,0.00,WeatherDisplay:10.37,2013-10-28 09:13:00,
2013-10-28 03:18:00,23.2,18.8,30.33,ENE,68,5.3,5.8,83,0.00,OVC,,0.00,WeatherDisplay:10.37,2013-10-28 09:18:00,
2013-10-28 03:23:00,23.2,18.8,30.33,East,90,5.0,6.8,83,0.00,OVC,,0.00,WeatherDisplay:10.37,2013-10-28 09:23:00,
2013-10-28 03:28:00,23.0,18.6,30.34,ENE,68,8.4,10.4,83,0.00,OVC,,0.00,WeatherDisplay:10.37,2013-10-28 09:28:00,
2013-10-28 03:33:00,23.0,18.6,30.34,ESE,112,5.5,6.9,83,0.00,OVC,,0.00,WeatherDisplay:10.37,2013-10-28 09:33:00,
2013-10-28 03:38:00,22.8,18.4,30.34,East,90,5.8,6.9,83,0.00,OVC,,0.00,WeatherDisplay:10.37,2013-10-28 09:38:00,
2013-10-28 03:43:00,22.8,18.4,30.34,NNE,22,6.2,8.1,83,0.00,OVC,,0.00,WeatherDisplay:10.37,2013-10-28 09:43:00,
2013-10-28 03:48:00,22.8,18.4,30.34,NE,45,5.3,5.8,83,0.00,OVC,,0.00,WeatherDisplay:10.37,2013-10-28 09:48:00,
2013-10-28 03:53:00,22.8,18.4,30.33,East,90,3.7,6.9,83,0.00,OVC,,0.00,WeatherDisplay:10.37,2013-10-28 09:53:00,
2013-10-28 03:58:00,22.8,18.4,30.33,ENE,68,4.9,5.8,83,0.00,OVC,,0.00,WeatherDisplay:10.37,2013-10-28 09:58:00,
2013-10-28 04:03:00,22.6,18.2,30.33,NE,45,4.9,5.8,83,0.00,OVC,,0.00,WeatherDisplay:10.37,2013-10-28 10:03:00,
2013-10-28 04:08:00,23.0,18.6,30.33,East,90,4.1,6.3,83,0.00,OVC,,0.00,WeatherDisplay:10.37,2013-10-28 10:08:00,
2013-10-28 04:13:00,22.6,17.9,30.33,ESE,112,8.1,8.3,82,0.00,OVC,,0.00,WeatherDisplay:10.37,2013-10-28 10:13:00,
2013-10-28 04:18:00,22.8,18.1,30.33,ENE,68,4.9,6.9,82,0.00,OVC,,0.00,WeatherDisplay:10.37,2013-10-28 10:18:00,
2013-10-28 04:23:00,22.6,17.9,30.33,ESE,112,5.9,10.4,82,0.00,OVC,,0.00,WeatherDisplay:10.37,2013-10-28 10:23:00,
2013-10-28 04:28:00,22.6,17.9,30.33,NE,45,5.2,8.1,82,0.00,OVC,,0.00,WeatherDisplay:10.37,2013-10-28 10:28:00,
2013-10-28 04:33:00,22.6,17.9,30.33,ESE,112,7.1,7.1,82,0.00,OVC,,0.00,WeatherDisplay:10.37,2013-10-28 10:33:00,
2013-10-28 04:38:00,22.5,17.8,30.33,ESE,112,6.3,8.1,82,0.00,OVC,,0.00,WeatherDisplay:10.37,2013-10-28 10:38:00,
2013-10-28 04:43:00,22.3,17.6,30.33,SE,135,5.7,6.9,82,0.00,OVC,,0.00,WeatherDisplay:10.37,2013-10-28 10:43:00,
2013-10-28 04:48:00,22.3,17.6,30.33,ENE,68,9.1,9.1,82,0.00,OVC,,0.00,WeatherDisplay:10.37,2013-10-28 10:48:00,
2013-10-28 04:53:00,22.1,17.4,30.33,ESE,112,8.4,10.4,82,0.00,OVC,,0.00,WeatherDisplay:10.37,2013-10-28 10:53:00,
2013-10-28 04:58:00,22.1,17.4,30.33,ENE,68,5.7,5.8,82,0.00,OVC,,0.00,WeatherDisplay:10.37,2013-10-28 10:58:00,
2013-10-28 05:03:00,22.1,17.4,30.33,ESE,112,5.1,5.8,82,0.00,OVC,,0.00,WeatherDisplay:10.37,2013-10-28 11:03:00,
2013-10-28 05:08:00,22.1,17.4,30.33,NE,45,7.0,8.1,82,0.00,OVC,,0.00,WeatherDisplay:10.37,2013-10-28 11:08:00,
2013-10-28 05:13:00,22.1,17.4,30.33,NNE,22,6.2,10.4,82,0.00,OVC,,0.00,WeatherDisplay:10.37,2013-10-28 11:13:00,
2013-10-28 05:18:00,21.9,17.2,30.34,East,90,7.6,8.1,82,0.00,OVC,,0.00,WeatherDisplay:10.37,2013-10-28 11:18:00,
2013-10-28 05:23:00,21.9,17.2,30.34,ESE,112,4.4,4.6,82,0.00,OVC,,0.00,WeatherDisplay:10.37,2013-10-28 11:23:00,
2013-10-28 05:28:00,21.9,17.2,30.34,NE,45,6.6,9.2,82,0.00,OVC,,0.00,WeatherDisplay:10.37,2013-10-28 11:28:00,
2013-10-28 05:33:00,21.9,17.2,30.34,East,90,6.2,8.1,82,0.00,OVC,,0.00,WeatherDisplay:10.37,2013-10-28 11:33:00,
2013-10-28 05:38:00,21.7,17.3,30.34,ESE,112,4.5,5.8,83,0.00,OVC,,0.00,WeatherDisplay:10.37,2013-10-28 11:38:00,
2013-10-28 05:43:00,21.6,17.2,30.34,East,90,5.1,9.2,83,0.00,OVC,,0.00,WeatherDisplay:10.37,2013-10-28 11:43:00,
2013-10-28 05:48:00,21.4,17.0,30.34,ENE,68,5.2,6.9,83,0.00,OVC,,0.00,WeatherDisplay:10.37,2013-10-28 11:48:00,
2013-10-28 05:53:00,21.4,17.0,30.34,ENE,68,7.9,10.4,83,0.00,OVC,,0.00,WeatherDisplay:10.37,2013-10-28 11:53:00,
2013-10-28 05:58:00,21.4,17.0,30.34,East,90,4.2,5.8,83,0.00,OVC,,0.00,WeatherDisplay:10.37,2013-10-28 11:58:00,
2013-10-28 06:03:00,21.4,17.3,30.34,ENE,68,5.0,5.8,84,0.00,OVC,,0.00,WeatherDisplay:10.37,2013-10-28 12:03:00,
2013-10-28 06:08:00,21.2,17.1,30.34,East,90,4.9,9.2,84,0.00,OVC,,0.00,WeatherDisplay:10.37,2013-10-28 12:08:00,
2013-10-28 06:13:00,21.0,16.9,30.34,ENE,68,5.3,9.4,84,0.00,OVC,,0.00,WeatherDisplay:10.37,2013-10-28 12:13:00,
2013-10-28 06:18:00,21.0,16.9,30.34,NE,45,3.5,5.3,84,0.00,OVC,,0.00,WeatherDisplay:10.37,2013-10-28 12:18:00,
2013-10-28 06:23:00,21.0,16.9,30.34,NE,45,5.2,8.1,84,0.00,OVC,,0.00,WeatherDisplay:10.37,2013-10-28 12:23:00,
2013-10-28 06:28:00,21.0,17.2,30.35,ENE,68,4.2,5.8,85,0.00,OVC,,0.00,WeatherDisplay:10.37,2013-10-28 12:28:00,
2013-10-28 06:33:00,21.0,17.2,30.35,ENE,68,5.9,8.1,85,0.00,OVC,,0.00,WeatherDisplay:10.37,2013-10-28 12:33:00,
2013-10-28 06:38:00,21.0,17.2,30.35,NE,45,4.5,8.1,85,0.00,OVC,,0.00,WeatherDisplay:10.37,2013-10-28 12:38:00,
2013-10-28 06:43:00,21.0,17.2,30.35,ENE,68,5.1,9.2,85,0.00,OVC,,0.00,WeatherDisplay:10.37,2013-10-28 12:43:00,
2013-10-28 06:48:00,21.0,17.2,30.35,ENE,68,5.6,6.9,85,0.00,OVC,,0.00,WeatherDisplay:10.37,2013-10-28 12:48:00,
2013-10-28 06:53:00,21.0,17.2,30.35,ESE,112,2.5,3.5,85,0.00,OVC,,0.00,WeatherDisplay:10.37,2013-10-28 12:53:00,
2013-10-28 06:58:00,21.2,17.4,30.35,East,90,4.1,5.8,85,0.00,OVC,,0.00,WeatherDisplay:10.37,2013-10-28 12:58:00,
2013-10-28 07:03:00,21.2,17.4,30.35,East,90,3.5,4.6,85,0.00,OVC,,0.00,WeatherDisplay:10.37,2013-10-28 13:03:00,
2013-10-28 07:08:00,21.0,17.2,30.35,East,90,5.6,6.9,85,0.00,OVC,,0.00,WeatherDisplay:10.37,2013-10-28 13:08:00,
2013-10-28 07:13:00,21.0,17.2,30.35,NNW,338,5.3,6.3,85,0.00,OVC,,0.00,WeatherDisplay:10.37,2013-10-28 13:13:00,
2013-10-28 07:18:00,21.0,17.2,30.35,East,90,6.2,6.9,85,0.00,OVC,,0.00,WeatherDisplay:10.37,2013-10-28 13:18:00,
2013-10-28 07:23:00,21.0,17.5,30.35,SE,135,4.1,8.1,86,0.00,OVC,,0.00,WeatherDisplay:10.37,2013-10-28 13:23:00,
2013-10-28 07:28:00,21.0,17.5,30.36,NNE,22,3.6,5.8,86,0.00,OVC,,0.00,WeatherDisplay:10.37,2013-10-28 13:28:00,
2013-10-28 07:33:00,21.0,17.5,30.36,ESE,112,2.7,3.2,86,0.00,OVC,,0.00,WeatherDisplay:10.37,2013-10-28 13:33:00,
2013-10-28 07:38:00,21.0,17.5,30.36,ESE,112,5.3,6.9,86,0.00,OVC,,0.00,WeatherDisplay:10.37,2013-10-28 13:38:00,
2013-10-28 07:43:00,21.0,17.5,30.36,East,90,6.8,8.1,86,0.00,OVC,,0.00,WeatherDisplay:10.37,2013-10-28 13:43:00,
2013-10-28 07:48:00,21.0,17.5,30.36,East,90,6.2,8.1,86,0.00,OVC,,0.00,WeatherDisplay:10.37,2013-10-28 13:48:00,
2013-10-28 07:53:00,21.0,17.5,30.36,East,90,5.3,6.9,86,0.00,OVC,,0.00,WeatherDisplay:10.37,2013-10-28 13:53:00,
2013-10-28 07:58:00,21.0,17.5,30.36,East,90,5.3,5.8,86,0.00,OVC,,0.00,WeatherDisplay:10.37,2013-10-28 13:58:00,
2013-10-28 08:03:00,21.0,17.5,30.37,ESE,112,4.0,10.4,86,0.00,OVC,,0.00,WeatherDisplay:10.37,2013-10-28 14:03:00,
2013-10-28 08:08:00,21.0,17.5,30.37,ESE,112,6.2,6.9,86,0.00,OVC,,0.00,WeatherDisplay:10.37,2013-10-28 14:08:00,
2013-10-28 08:14:00,21.0,17.5,30.37,NE,45,4.2,6.9,86,0.00,OVC,,0.00,WeatherDisplay:10.37,2013-10-28 14:14:00,
2013-10-28 08:19:00,21.0,17.5,30.36,ESE,112,4.7,5.8,86,0.00,OVC,,0.00,WeatherDisplay:10.37,2013-10-28 14:19:00,
2013-10-28 08:24:00,21.4,17.9,30.36,SE,135,6.2,8.1,86,0.00,OVC,,0.00,WeatherDisplay:10.37,2013-10-28 14:24:00,
2013-10-28 08:29:00,21.4,17.9,30.37,ESE,112,5.0,6.9,86,0.00,OVC,,0.00,WeatherDisplay:10.37,2013-10-28 14:29:00,
2013-10-28 08:34:00,21.7,18.2,30.37,SSE,158,5.0,5.3,86,0.00,OVC,,0.00,WeatherDisplay:10.37,2013-10-28 14:34:00,
2013-10-28 08:39:00,21.6,17.8,30.37,East,90,4.5,5.8,85,0.00,OVC,,0.00,WeatherDisplay:10.37,2013-10-28 14:39:00,
2013-10-28 08:44:00,21.9,18.1,30.37,SSE,158,5.4,5.8,85,0.00,OVC,,0.00,WeatherDisplay:10.37,2013-10-28 14:44:00,
2013-10-28 08:49:00,22.1,18.3,30.37,SE,135,4.4,6.9,85,0.00,OVC,,0.00,WeatherDisplay:10.37,2013-10-28 14:49:00,
2013-10-28 08:54:00,22.1,18.0,30.37,ESE,112,5.6,8.3,84,0.00,OVC,,0.00,WeatherDisplay:10.37,2013-10-28 14:54:00,
2013-10-28 08:59:00,22.1,18.0,30.37,ESE,112,5.1,5.8,84,0.00,OVC,,0.00,WeatherDisplay:10.37,2013-10-28 14:59:00,
2013-10-28 09:04:00,22.3,18.2,30.38,ENE,68,5.8,6.9,84,0.00,OVC,,0.00,WeatherDisplay:10.37,2013-10-28 15:04:00,
2013-10-28 09:09:00,22.5,18.4,30.38,ESE,112,6.4,8.1,84,0.00,OVC,,0.00,WeatherDisplay:10.37,2013-10-28 15:09:00,
2013-10-28 09:14:00,22.5,18.4,30.38,ESE,112,6.1,8.1,84,0.00,OVC,,0.00,WeatherDisplay:10.37,2013-10-28 15:14:00,
2013-10-28 09:19:00,22.5,18.4,30.37,ENE,68,6.4,6.9,84,0.00,OVC,,0.00,WeatherDisplay:10.37,2013-10-28 15:19:00,
2013-10-28 09:24:00,22.6,18.5,30.37,ESE,112,7.7,9.2,84,0.00,OVC,,0.00,WeatherDisplay:10.37,2013-10-28 15:24:00,
2013-10-28 09:29:00,22.8,18.7,30.37,SSE,158,4.9,8.3,84,0.00,OVC,,0.00,WeatherDisplay:10.37,2013-10-28 15:29:00,
2013-10-28 09:34:00,23.0,18.6,30.37,ESE,112,3.0,5.8,83,0.00,OVC,,0.00,WeatherDisplay:10.37,2013-10-28 15:34:00,
2013-10-28 09:39:00,22.8,18.4,30.38,ESE,112,8.3,10.4,83,0.00,OVC,,0.00,WeatherDisplay:10.37,2013-10-28 15:39:00,
2013-10-28 09:44:00,22.6,18.2,30.38,East,90,6.3,6.3,83,0.00,OVC,,0.00,WeatherDisplay:10.37,2013-10-28 15:44:00,
2013-10-28 09:49:00,22.8,18.4,30.38,ESE,112,4.0,5.8,83,0.00,OVC,,0.00,WeatherDisplay:10.37,2013-10-28 15:49:00,
2013-10-28 09:54:00,22.8,18.4,30.38,ESE,112,5.8,5.8,83,0.00,OVC,,0.00,WeatherDisplay:10.37,2013-10-28 15:54:00,
2013-10-28 09:59:00,23.0,18.6,30.38,ENE,68,5.2,9.2,83,0.00,OVC,,0.00,WeatherDisplay:10.37,2013-10-28 15:59:00,
2013-10-28 10:04:00,23.4,18.7,30.38,SSE,158,6.8,8.1,82,0.00,OVC,,0.00,WeatherDisplay:10.37,2013-10-28 16:04:00,
2013-10-28 10:09:00,23.4,18.7,30.38,ENE,68,5.9,6.9,82,0.00,OVC,,0.00,WeatherDisplay:10.37,2013-10-28 16:09:00,
2013-10-28 10:14:00,23.9,19.2,30.38,ESE,112,4.6,6.9,82,0.00,OVC,,0.00,WeatherDisplay:10.37,2013-10-28 16:14:00,
2013-10-28 10:19:00,23.5,18.8,30.38,ENE,68,6.0,7.3,82,0.00,OVC,,0.00,WeatherDisplay:10.37,2013-10-28 16:19:00,
2013-10-28 10:24:00,23.5,18.8,30.38,ENE,68,7.3,7.3,82,0.00,OVC,,0.00,WeatherDisplay:10.37,2013-10-28 16:24:00,
2013-10-28 10:29:00,23.7,19.0,30.38,SSE,158,6.1,9.2,82,0.00,OVC,,0.00,WeatherDisplay:10.37,2013-10-28 16:29:00,
2013-10-28 10:34:00,23.7,19.0,30.38,SE,135,5.8,6.9,82,0.00,OVC,,0.00,WeatherDisplay:10.37,2013-10-28 16:34:00,
2013-10-28 10:39:00,23.7,19.0,30.38,NNE,22,6.2,8.1,82,0.00,OVC,,0.00,WeatherDisplay:10.37,2013-10-28 16:39:00,
2013-10-28 10:44:00,24.1,19.4,30.38,SE,135,6.5,9.2,82,0.00,OVC,,0.00,WeatherDisplay:10.37,2013-10-28 16:44:00,
2013-10-28 10:49:00,24.1,19.4,30.38,NE,45,5.9,8.1,82,0.00,OVC,,0.00,WeatherDisplay:10.37,2013-10-28 16:49:00,
2013-10-28 10:54:00,24.3,19.3,30.39,East,90,4.9,7.3,81,0.00,OVC,,0.00,WeatherDisplay:10.37,2013-10-28 16:54:00,
2013-10-28 10:59:00,24.4,19.4,30.39,ENE,68,5.3,6.9,81,0.00,OVC,,0.00,WeatherDisplay:10.37,2013-10-28 16:59:00,
2013-10-28 11:04:00,24.3,19.3,30.39,NE,45,4.1,5.8,81,0.00,OVC,,0.00,WeatherDisplay:10.37,2013-10-28 17:04:00,
2013-10-28 11:09:00,24.3,19.3,30.39,NE,45,5.5,8.1,81,0.00,OVC,,0.00,WeatherDisplay:10.37,2013-10-28 17:09:00,
2013-10-28 11:15:00,25.2,20.2,30.38,SE,135,4.5,5.8,81,0.00,OVC,,0.00,WeatherDisplay:10.37,2013-10-28 17:15:00,
2013-10-28 11:19:00,24.6,19.3,30.38,East,90,6.6,6.9,80,0.00,OVC,,0.00,WeatherDisplay:10.37,2013-10-28 17:19:00,
2013-10-28 11:25:00,24.6,19.3,30.38,NE,45,7.3,7.3,80,0.00,OVC,,0.00,WeatherDisplay:10.37,2013-10-28 17:25:00,
2013-10-28 11:30:00,24.8,19.5,30.38,ENE,68,6.9,8.1,80,0.00,OVC,,0.00,WeatherDisplay:10.37,2013-10-28 17:30:00,
2013-10-28 11:35:00,25.0,19.7,30.38,ENE,68,5.9,6.3,80,0.00,OVC,,0.00,WeatherDisplay:10.37,2013-10-28 17:35:00,
2013-10-28 11:40:00,25.2,19.9,30.39,ESE,112,5.1,6.9,80,0.00,OVC,,0.00,WeatherDisplay:10.37,2013-10-28 17:40:00,
2013-10-28 11:45:00,25.7,20.4,30.39,NE,45,3.1,3.5,80,0.00,OVC,,0.00,WeatherDisplay:10.37,2013-10-28 17:45:00,
2013-10-28 11:50:00,25.5,19.6,30.39,East,90,6.9,9.2,78,0.00,OVC,,0.00,WeatherDisplay:10.37,2013-10-28 17:50:00,
2013-10-28 11:55:00,25.5,19.9,30.38,NNE,22,7.3,9.2,79,0.00,OVC,,0.00,WeatherDisplay:10.37,2013-10-28 17:55:00,
2013-10-28 12:00:00,25.3,19.7,30.38,ESE,112,5.7,8.1,79,0.00,OVC,,0.00,WeatherDisplay:10.37,2013-10-28 18:00:00,
2013-10-28 12:05:00,25.5,19.9,30.38,East,90,5.7,10.4,79,0.00,OVC,,0.00,WeatherDisplay:10.37,2013-10-28 18:05:00,
2013-10-28 12:10:00,25.9,20.3,30.38,East,90,5.8,5.8,79,0.00,OVC,,0.00,WeatherDisplay:10.37,2013-10-28 18:10:00,
2013-10-28 12:15:00,25.5,19.9,30.38,ESE,112,6.7,8.1,79,0.00,OVC,,0.00,WeatherDisplay:10.37,2013-10-28 18:15:00,
2013-10-28 12:20:00,25.5,19.9,30.37,ENE,68,5.8,6.9,79,0.00,OVC,,0.00,WeatherDisplay:10.37,2013-10-28 18:20:00,
2013-10-28 12:25:00,25.9,20.3,30.37,ESE,112,5.4,8.1,79,0.00,OVC,,0.00,WeatherDisplay:10.37,2013-10-28 18:25:00,
2013-10-28 12:30:00,26.4,20.5,30.37,ENE,68,5.9,9.2,78,0.00,OVC,,0.00,WeatherDisplay:10.37,2013-10-28 18:30:00,
2013-10-28 12:35:00,26.6,20.4,30.37,ESE,112,6.1,9.2,77,0.00,OVC,,0.00,WeatherDisplay:10.37,2013-10-28 18:35:00,
2013-10-28 12:40:00,26.2,20.0,30.36,ESE,112,4.5,9.2,77,0.00,OVC,,0.00,WeatherDisplay:10.37,2013-10-28 18:40:00,
2013-10-28 12:45:00,27.0,20.7,30.36,ESE,112,5.3,8.1,77,0.00,OVC,,0.00,WeatherDisplay:10.37,2013-10-28 18:45:00,
2013-10-28 12:50:00,27.0,20.7,30.36,ESE,112,5.9,8.1,77,0.00,OVC,,0.00,WeatherDisplay:10.37,2013-10-28 18:50:00,
2013-10-28 12:55:00,27.0,20.7,30.35,East,90,4.9,5.8,77,0.00,OVC,,0.00,WeatherDisplay:10.37,2013-10-28 18:55:00,
2013-10-28 13:00:00,27.0,20.4,30.35,ESE,112,5.9,6.9,76,0.00,OVC,,0.00,WeatherDisplay:10.37,2013-10-28 19:00:00,
2013-10-28 13:05:00,27.0,20.4,30.35,East,90,6.4,9.4,76,0.00,OVC,,0.00,WeatherDisplay:10.37,2013-10-28 19:05:00,
2013-10-28 13:10:00,27.0,20.4,30.35,ESE,112,5.9,6.9,76,0.00,OVC,,0.00,WeatherDisplay:10.37,2013-10-28 19:10:00,
2013-10-28 13:15:00,27.0,20.4,30.35,NE,45,7.8,10.4,76,0.00,OVC,,0.00,WeatherDisplay:10.37,2013-10-28 19:15:00,
2013-10-28 13:20:00,27.0,20.4,30.34,East,90,8.0,10.4,76,0.00,OVC,,0.00,WeatherDisplay:10.37,2013-10-28 19:20:00,
2013-10-28 13:25:00,27.5,20.9,30.34,East,90,7.3,8.3,76,0.00,OVC,,0.00,WeatherDisplay:10.37,2013-10-28 19:25:00,
2013-10-28 13:30:00,27.3,20.7,30.33,SE,135,7.3,7.3,76,0.00,OVC,,0.00,WeatherDisplay:10.37,2013-10-28 19:30:00,
2013-10-28 13:35:00,27.0,20.4,30.33,ESE,112,6.2,11.5,76,0.00,OVC,,0.00,WeatherDisplay:10.37,2013-10-28 19:35:00,
2013-10-28 13:40:00,27.0,20.7,30.33,SSE,158,7.5,8.1,77,0.00,OVC,,0.00,WeatherDisplay:10.37,2013-10-28 19:40:00,
2013-10-28 13:45:00,27.1,20.8,30.33,ESE,112,10.2,11.5,77,0.00,OVC,,0.00,WeatherDisplay:10.37,2013-10-28 19:45:00,
2013-10-28 13:50:00,27.0,20.7,30.33,ENE,68,6.4,10.4,77,0.00,OVC,,0.00,WeatherDisplay:10.37,2013-10-28 19:50:00,
2013-10-28 13:55:00,27.3,21.0,30.33,East,90,5.7,6.8,77,0.00,OVC,,0.00,WeatherDisplay:10.37,2013-10-28 19:55:00,
2013-10-28 14:00:00,27.1,20.8,30.33,East,90,9.1,10.4,77,0.00,OVC,,0.00,WeatherDisplay:10.37,2013-10-28 20:00:00,
2013-10-28 14:05:00,27.1,20.8,30.33,SE,135,6.3,7.3,77,0.00,OVC,,0.00,WeatherDisplay:10.37,2013-10-28 20:05:00,
2013-10-28 14:10:00,27.1,20.8,30.33,ENE,68,7.0,11.5,77,0.00,OVC,,0.00,WeatherDisplay:10.37,2013-10-28 20:10:00,
2013-10-28 14:15:00,27.1,20.8,30.32,ESE,112,7.0,9.2,77,0.00,OVC,,0.00,WeatherDisplay:10.37,2013-10-28 20:15:00,
2013-10-28 14:20:00,27.1,20.8,30.32,ENE,68,5.5,5.5,77,0.00,OVC,,0.00,WeatherDisplay:10.37,2013-10-28 20:20:00,
2013-10-28 14:25:00,27.5,21.2,30.32,SSE,158,5.1,6.9,77,0.00,OVC,,0.00,WeatherDisplay:10.37,2013-10-28 20:25:00,
2013-10-28 14:30:00,27.7,21.4,30.33,SE,135,4.8,6.8,77,0.00,OVC,,0.00,WeatherDisplay:10.37,2013-10-28 20:30:00,
2013-10-28 14:35:00,27.5,21.2,30.33,NE,45,4.4,5.8,77,0.00,OVC,,0.00,WeatherDisplay:10.37,2013-10-28 20:35:00,
2013-10-28 14:40:00,27.7,21.4,30.32,SE,135,5.5,7.3,77,0.00,OVC,,0.00,WeatherDisplay:10.37,2013-10-28 20:40:00,
2013-10-28 14:45:00,27.7,21.4,30.32,SE,135,6.5,8.1,77,0.00,OVC,,0.00,WeatherDisplay:10.37,2013-10-28 20:45:00,
2013-10-28 14:50:00,27.7,21.4,30.32,ESE,112,6.1,9.2,77,0.00,OVC,,0.00,WeatherDisplay:10.37,2013-10-28 20:50:00,
2013-10-28 14:55:00,27.3,21.0,30.32,ESE,112,5.3,8.3,77,0.00,OVC,,0.00,WeatherDisplay:10.37,2013-10-28 20:55:00,
2013-10-28 15:00:00,27.5,21.2,30.32,NE,45,6.5,6.9,77,0.00,OVC,,0.00,WeatherDisplay:10.37,2013-10-28 21:00:00,
2013-10-28 15:05:00,27.7,21.4,30.32,SSE,158,3.3,7.3,77,0.00,OVC,,0.00,WeatherDisplay:10.37,2013-10-28 21:05:00,
2013-10-28 15:10:00,27.9,21.3,30.32,SE,135,6.9,8.1,76,0.00,OVC,,0.00,WeatherDisplay:10.37,2013-10-28 21:10:00,
2013-10-28 15:15:00,27.9,21.3,30.32,NE,45,5.0,5.8,76,0.00,OVC,,0.00,WeatherDisplay:10.37,2013-10-28 21:15:00,
2013-10-28 15:20:00,27.9,21.3,30.32,East,90,5.7,8.1,76,0.00,OVC,,0.00,WeatherDisplay:10.37,2013-10-28 21:20:00,
2013-10-28 15:25:00,27.9,21.3,30.32,ESE,112,6.8,8.3,76,0.00,OVC,,0.00,WeatherDisplay:10.37,2013-10-28 21:25:00,
2013-10-28 15:30:00,27.7,21.1,30.32,SE,135,4.3,10.4,76,0.00,OVC,,0.00,WeatherDisplay:10.37,2013-10-28 21:30:00,
2013-10-28 15:35:00,27.9,21.6,30.32,ESE,112,4.4,5.8,77,0.00,OVC,,0.00,WeatherDisplay:10.37,2013-10-28 21:35:00,
2013-10-28 15:40:00,27.9,21.6,30.32,NE,45,6.4,9.2,77,0.00,OVC,,0.00,WeatherDisplay:10.37,2013-10-28 21:40:00,
2013-10-28 15:45:00,27.5,21.2,30.32,East,90,4.4,5.8,77,0.00,OVC,,0.00,WeatherDisplay:10.37,2013-10-28 21:45:00,
2013-10-28 15:50:00,27.5,21.2,30.32,ESE,112,4.5,5.8,77,0.00,OVC,,0.00,WeatherDisplay:10.37,2013-10-28 21:50:00,
2013-10-28 15:55:00,27.7,21.4,30.32,East,90,4.2,5.8,77,0.00,OVC,,0.00,WeatherDisplay:10.37,2013-10-28 21:55:00,
2013-10-28 16:00:00,27.3,21.0,30.32,ENE,68,5.8,8.1,77,0.00,OVC,,0.00,WeatherDisplay:10.37,2013-10-28 22:00:00,
2013-10-28 16:05:00,27.3,21.0,30.32,ESE,112,4.9,8.1,77,0.00,OVC,,0.00,WeatherDisplay:10.37,2013-10-28 22:05:00,
2013-10-28 16:10:00,27.3,21.0,30.32,East,90,4.9,6.3,77,0.00,OVC,,0.00,WeatherDisplay:10.37,2013-10-28 22:10:00,
2013-10-28 16:15:00,27.3,21.0,30.32,East,90,3.6,4.6,77,0.00,OVC,,0.00,WeatherDisplay:10.37,2013-10-28 22:15:00,
2013-10-28 16:20:00,27.3,21.0,30.32,East,90,4.8,8.1,77,0.00,OVC,,0.00,WeatherDisplay:10.37,2013-10-28 22:20:00,
2013-10-28 16:25:00,27.3,21.3,30.32,NNE,22,4.4,5.8,78,0.00,OVC,,0.00,WeatherDisplay:10.37,2013-10-28 22:25:00,
2013-10-28 16:30:00,27.3,21.3,30.32,ENE,68,3.8,5.8,78,0.00,OVC,,0.00,WeatherDisplay:10.37,2013-10-28 22:30:00,
2013-10-28 16:35:00,27.3,21.3,30.32,ESE,112,5.5,7.8,78,0.00,OVC,,0.00,WeatherDisplay:10.37,2013-10-28 22:35:00,
2013-10-28 16:40:00,27.3,21.3,30.31,NE,45,5.5,5.8,78,0.00,OVC,,0.00,WeatherDisplay:10.37,2013-10-28 22:40:00,
2013-10-28 16:45:00,27.3,21.3,30.31,ENE,68,6.1,6.9,78,0.00,OVC,,0.00,WeatherDisplay:10.37,2013-10-28 22:45:00,
2013-10-28 16:50:00,27.1,21.2,30.31,SE,135,5.8,8.1,78,0.00,OVC,,0.00,WeatherDisplay:10.37,2013-10-28 22:50:00,
2013-10-28 16:55:00,27.1,21.2,30.31,ESE,112,3.7,5.8,78,0.00,OVC,,0.00,WeatherDisplay:10.37,2013-10-28 22:55:00,
2013-10-28 17:01:00,27.1,21.2,30.31,SE,135,5.5,9.2,78,0.00,OVC,,0.00,WeatherDisplay:10.37,2013-10-28 23:01:00,
2013-10-28 17:05:00,27.1,21.2,30.30,ESE,112,5.4,6.9,78,0.00,OVC,,0.00,WeatherDisplay:10.37,2013-10-28 23:05:00,
2013-10-28 17:11:00,27.1,21.2,30.30,ESE,112,7.2,9.2,78,0.00,OVC,,0.00,WeatherDisplay:10.37,2013-10-28 23:11:00,
2013-10-28 17:16:00,27.3,21.3,30.30,ESE,112,5.6,6.9,78,0.00,OVC,,0.00,WeatherDisplay:10.37,2013-10-28 23:16:00,
2013-10-28 17:21:00,27.5,21.2,30.30,SE,135,6.2,8.1,77,0.00,OVC,,0.00,WeatherDisplay:10.37,2013-10-28 23:21:00,
2013-10-28 17:26:00,27.5,21.2,30.30,East,90,4.7,7.3,77,0.00,OVC,,0.00,WeatherDisplay:10.37,2013-10-28 23:26:00,
2013-10-28 17:31:00,27.5,21.2,30.30,ENE,68,4.6,6.3,77,0.00,OVC,,0.00,WeatherDisplay:10.37,2013-10-28 23:31:00,
2013-10-28 17:36:00,27.3,21.0,30.30,ESE,112,3.8,4.7,77,0.00,OVC,,0.00,WeatherDisplay:10.37,2013-10-28 23:36:00,
2013-10-28 17:41:00,27.3,21.0,30.30,SSE,158,6.3,6.9,77,0.00,OVC,,0.00,WeatherDisplay:10.37,2013-10-28 23:41:00,
2013-10-28 17:46:00,27.1,20.8,30.30,ENE,68,6.9,8.1,77,0.00,OVC,,0.00,WeatherDisplay:10.37,2013-10-28 23:46:00,
2013-10-28 17:51:00,27.1,20.8,30.30,SE,135,7.5,10.4,77,0.00,OVC,,0.00,WeatherDisplay:10.37,2013-10-28 23:51:00,
2013-10-28 17:56:00,27.1,20.8,30.29,ESE,112,5.4,8.1,77,0.00,OVC,,0.00,WeatherDisplay:10.37,2013-10-28 23:56:00,
2013-10-28 18:01:00,27.1,20.8,30.29,ESE,112,3.9,4.6,77,0.00,OVC,,0.00,WeatherDisplay:10.37,2013-10-29 00:01:00,
2013-10-28 18:06:00,27.1,20.8,30.29,ENE,68,5.8,8.1,77,0.00,OVC,,0.00,WeatherDisplay:10.37,2013-10-29 00:06:00,
2013-10-28 18:11:00,27.0,20.7,30.29,ENE,68,5.0,5.8,77,0.00,OVC,,0.00,WeatherDisplay:10.37,2013-10-29 00:11:00,
2013-10-28 18:16:00,27.0,20.7,30.29,ESE,112,4.8,10.4,77,0.00,OVC,,0.00,WeatherDisplay:10.37,2013-10-29 00:16:00,
2013-10-28 18:21:00,27.0,20.7,30.29,SSE,158,5.1,5.8,77,0.00,OVC,,0.00,WeatherDisplay:10.37,2013-10-29 00:21:00,
2013-10-28 18:26:00,27.0,20.7,30.29,SSE,158,5.1,8.1,77,0.00,OVC,,0.00,WeatherDisplay:10.37,2013-10-29 00:26:00,
2013-10-28 18:31:00,27.0,20.7,30.29,SE,135,6.2,9.2,77,0.00,OVC,,0.00,WeatherDisplay:10.37,2013-10-29 00:31:00,
2013-10-28 18:36:00,27.0,20.7,30.29,East,90,5.0,8.1,77,0.00,OVC,,0.00,WeatherDisplay:10.37,2013-10-29 00:36:00,
2013-10-28 18:41:00,27.0,20.7,30.29,ESE,112,4.3,8.3,77,0.00,OVC,,0.00,WeatherDisplay:10.37,2013-10-29 00:41:00,
2013-10-28 18:46:00,27.0,20.7,30.29,NE,45,5.6,5.8,77,0.00,OVC,,0.00,WeatherDisplay:10.37,2013-10-29 00:46:00,
2013-10-28 18:51:00,26.8,20.6,30.29,ENE,68,6.3,8.1,77,0.00,OVC,,0.00,WeatherDisplay:10.37,2013-10-29 00:51:00,
2013-10-28 18:56:00,26.8,20.6,30.30,SSE,158,4.3,5.8,77,0.00,OVC,,0.00,WeatherDisplay:10.37,2013-10-29 00:56:00,
2013-10-28 19:01:00,26.8,20.2,30.30,ESE,112,8.0,8.8,76,0.00,OVC,,0.00,WeatherDisplay:10.37,2013-10-29 01:01:00,
2013-10-28 19:06:00,26.8,20.2,30.30,ESE,112,6.1,6.9,76,0.00,OVC,,0.00,WeatherDisplay:10.37,2013-10-29 01:06:00,
2013-10-28 19:11:00,26.8,20.2,30.30,South,180,4.2,4.6,76,0.00,OVC,,0.00,WeatherDisplay:10.37,2013-10-29 01:11:00,
2013-10-28 19:16:00,26.8,20.2,30.30,SE,135,5.7,6.9,76,0.00,OVC,,0.00,WeatherDisplay:10.37,2013-10-29 01:16:00,
2013-10-28 19:21:00,26.6,20.1,30.30,SE,135,6.2,6.9,76,0.00,OVC,,0.00,WeatherDisplay:10.37,2013-10-29 01:21:00,
2013-10-28 19:26:00,26.6,20.1,30.30,ESE,112,7.9,8.1,76,0.00,OVC,,0.00,WeatherDisplay:10.37,2013-10-29 01:26:00,
2013-10-28 19:31:00,26.6,20.1,30.30,SSE,158,4.9,7.3,76,0.00,OVC,,0.00,WeatherDisplay:10.37,2013-10-29 01:31:00,
2013-10-28 19:36:00,26.4,19.9,30.30,East,90,4.2,5.8,76,0.00,-SN,,0.00,WeatherDisplay:10.37,2013-10-29 01:36:00,
2013-10-28 19:41:00,26.4,20.2,30.30,ESE,112,4.9,6.9,77,0.00,-SN,,0.00,WeatherDisplay:10.37,2013-10-29 01:41:00,
2013-10-28 19:46:00,26.2,20.6,30.30,ESE,112,6.1,7.3,79,0.00,-SN,,0.00,WeatherDisplay:10.37,2013-10-29 01:46:00,
2013-10-28 19:51:00,25.9,21.2,30.30,SE,135,4.9,8.1,82,0.00,-SN,,0.00,WeatherDisplay:10.37,2013-10-29 01:51:00,
2013-10-28 19:56:00,25.7,21.5,30.30,ESE,112,4.7,5.8,84,0.00,-SN,,0.00,WeatherDisplay:10.37,2013-10-29 01:56:00,
2013-10-28 20:01:00,25.7,21.5,30.30,SSE,158,4.8,6.3,84,0.00,-SN,,0.00,WeatherDisplay:10.37,2013-10-29 02:01:00,
2013-10-28 20:06:00,25.2,21.3,30.30,ESE,112,4.5,5.8,85,0.00,-SN,,0.00,WeatherDisplay:10.37,2013-10-29 02:06:00,
2013-10-28 20:11:00,24.8,21.2,30.30,ESE,112,5.9,8.1,86,0.00,-SN,,0.00,WeatherDisplay:10.37,2013-10-29 02:11:00,
2013-10-28 20:16:00,24.8,22.0,30.30,ESE,112,4.1,4.7,89,0.00,-SN,,0.00,WeatherDisplay:10.37,2013-10-29 02:16:00,
2013-10-28 20:21:00,24.6,21.8,30.30,ESE,112,4.4,5.8,89,0.00,-SN,,0.00,WeatherDisplay:10.37,2013-10-29 02:21:00,
2013-10-28 20:26:00,24.6,21.8,30.30,SE,135,6.1,6.1,89,0.00,-SN,,0.00,WeatherDisplay:10.37,2013-10-29 02:26:00,
2013-10-28 20:31:00,24.4,21.6,30.30,ESE,112,5.5,5.8,89,0.00,-SN,,0.00,WeatherDisplay:10.37,2013-10-29 02:31:00,
2013-10-28 20:36:00,24.4,21.9,30.30,SE,135,5.4,6.9,90,0.00,-SN,,0.00,WeatherDisplay:10.37,2013-10-29 02:36:00,
2013-10-28 20:41:00,24.4,21.9,30.30,SE,135,5.2,8.1,90,0.00,-SN,,0.00,WeatherDisplay:10.37,2013-10-29 02:41:00,
2013-10-28 20:46:00,24.3,22.1,30.30,ESE,112,4.5,5.8,91,0.00,-SN,,0.00,WeatherDisplay:10.37,2013-10-29 02:46:00,
2013-10-28 20:51:00,24.3,22.1,30.30,ESE,112,4.7,8.8,91,0.00,-SN,,0.00,WeatherDisplay:10.37,2013-10-29 02:51:00,
2013-10-28 20:56:00,24.3,22.1,30.29,ESE,112,4.7,5.8,91,0.00,-SN,,0.00,WeatherDisplay:10.37,2013-10-29 02:56:00,
2013-10-28 21:01:00,24.3,22.1,30.29,ESE,112,6.4,6.9,91,0.00,-SN,,0.00,WeatherDisplay:10.37,2013-10-29 03:01:00,
2013-10-28 21:06:00,24.3,22.1,30.29,SE,135,4.4,5.8,91,0.00,-SN,,0.00,WeatherDisplay:10.37,2013-10-29 03:06:00,
2013-10-28 21:11:00,24.1,22.1,30.29,ESE,112,5.6,8.1,92,0.00,-SN,,0.00,WeatherDisplay:10.37,2013-10-29 03:11:00,
2013-10-28 21:16:00,24.1,22.1,30.29,ESE,112,5.3,6.9,92,0.00,-SN,,0.00,WeatherDisplay:10.37,2013-10-29 03:16:00,
2013-10-28 21:21:00,24.1,22.1,30.29,East,90,3.9,4.7,92,0.00,-SN,,0.00,WeatherDisplay:10.37,2013-10-29 03:21:00,
2013-10-28 21:26:00,24.1,22.1,30.29,East,90,3.8,4.6,92,0.00,-SN,,0.00,WeatherDisplay:10.37,2013-10-29 03:26:00,
2013-10-28 21:31:00,24.1,22.1,30.29,ESE,112,4.9,5.8,92,0.00,-SN,,0.00,WeatherDisplay:10.37,2013-10-29 03:31:00,
2013-10-28 21:36:00,24.1,22.1,30.29,ESE,112,6.7,7.3,92,0.00,-SN,,0.00,WeatherDisplay:10.37,2013-10-29 03:36:00,
2013-10-28 21:41:00,24.1,22.1,30.29,ESE,112,5.2,5.8,92,0.00,-SN,,0.00,WeatherDisplay:10.37,2013-10-29 03:41:00,
2013-10-28 21:46:00,24.1,22.1,30.29,East,90,6.1,6.3,92,0.00,-SN,,0.00,WeatherDisplay:10.37,2013-10-29 03:46:00,
2013-10-28 21:51:00,24.1,22.1,30.29,ESE,112,6.9,8.1,92,0.00,-SN,,0.00,WeatherDisplay:10.37,2013-10-29 03:51:00,
2013-10-28 21:56:00,24.1,22.1,30.29,ESE,112,6.1,6.9,92,0.00,-SN,,0.00,WeatherDisplay:10.37,2013-10-29 03:56:00,
2013-10-28 22:01:00,24.1,22.1,30.29,East,90,3.6,4.2,92,0.00,-SN,,0.00,WeatherDisplay:10.37,2013-10-29 04:01:00,
2013-10-28 22:02:00,24.1,22.1,30.29,East,90,4.0,4.7,92,0.00,-SN,,0.00,WeatherDisplay:10.37,2013-10-29 04:02:00,
2013-10-28 22:07:00,24.1,22.1,30.28,SE,135,4.2,4.6,92,0.00,-SN,,0.00,WeatherDisplay:10.37,2013-10-29 04:07:00,
2013-10-28 22:12:00,24.1,22.1,30.28,ESE,112,4.6,5.8,92,0.00,-SN,,0.00,WeatherDisplay:10.37,2013-10-29 04:12:00,
2013-10-28 22:17:00,24.1,22.1,30.28,ESE,112,5.0,5.8,92,0.00,-SN,,0.00,WeatherDisplay:10.37,2013-10-29 04:17:00,
2013-10-28 22:22:00,24.1,22.1,30.28,ESE,112,6.3,6.9,92,0.00,-SN,,0.00,WeatherDisplay:10.37,2013-10-29 04:22:00,
2013-10-28 22:27:00,24.1,22.1,30.28,SSE,158,3.6,5.8,92,0.00,-SN,,0.00,WeatherDisplay:10.37,2013-10-29 04:27:00,
2013-10-28 22:32:00,24.1,22.1,30.28,SE,135,4.5,5.8,92,0.00,-SN,,0.00,WeatherDisplay:10.37,2013-10-29 04:32:00,
2013-10-28 22:37:00,24.1,22.1,30.28,ESE,112,5.0,6.9,92,0.00,-SN,,0.00,WeatherDisplay:10.37,2013-10-29 04:37:00,
2013-10-28 22:42:00,24.1,22.1,30.28,SE,135,3.7,5.8,92,0.00,-SN,,0.00,WeatherDisplay:10.37,2013-10-29 04:42:00,
2013-10-28 22:47:00,24.1,22.1,30.28,ESE,112,4.0,4.6,92,0.00,-SN,,0.00,WeatherDisplay:10.37,2013-10-29 04:47:00,
2013-10-28 22:52:00,24.1,22.1,30.29,East,90,5.4,5.8,92,0.00,-SN,,0.00,WeatherDisplay:10.37,2013-10-29 04:52:00,
2013-10-28 22:57:00,24.1,22.1,30.29,ESE,112,4.4,5.8,92,0.00,-SN,,0.00,WeatherDisplay:10.37,2013-10-29 04:57:00,
2013-10-28 23:02:00,24.1,22.1,30.29,NE,45,3.9,4.6,92,0.00,-SN,,0.00,WeatherDisplay:10.37,2013-10-29 05:02:00,
2013-10-28 23:07:00,24.1,22.1,30.28,ESE,112,5.2,6.3,92,0.00,-SN,,0.00,WeatherDisplay:10.37,2013-10-29 05:07:00,
2013-10-28 23:12:00,24.1,22.1,30.28,ESE,112,4.0,4.6,92,0.00,-SN,,0.00,WeatherDisplay:10.37,2013-10-29 05:12:00,
2013-10-28 23:17:00,24.1,22.1,30.28,ENE,68,4.8,5.8,92,0.00,-SN,,0.00,WeatherDisplay:10.37,2013-10-29 05:17:00,
2013-10-28 23:22:00,23.9,21.9,30.28,ESE,112,6.9,7.3,92,0.00,-SN,,0.00,WeatherDisplay:10.37,2013-10-29 05:22:00,
2013-10-28 23:27:00,23.9,21.9,30.28,ESE,112,4.5,4.6,92,0.00,-SN,,0.00,WeatherDisplay:10.37,2013-10-29 05:27:00,
2013-10-28 23:32:00,23.9,21.9,30.28,ESE,112,5.5,6.9,92,0.00,-SN,,0.00,WeatherDisplay:10.37,2013-10-29 05:32:00,
2013-10-28 23:37:00,23.9,21.9,30.28,South,180,3.1,5.8,92,0.00,-SN,,0.00,WeatherDisplay:10.37,2013-10-29 05:37:00,
2013-10-28 23:42:00,23.9,21.9,30.28,SE,135,3.9,4.6,92,0.00,-SN,,0.00,WeatherDisplay:10.37,2013-10-29 05:42:00,
2013-10-28 23:47:00,23.9,21.9,30.28,ESE,112,5.6,5.8,92,0.00,-SN,,0.00,WeatherDisplay:10.37,2013-10-29 05:47:00,
2013-10-28 23:52:00,23.9,21.9,30.28,ESE,112,4.1,5.8,92,0.00,-SN,,0.00,WeatherDisplay:10.37,2013-10-29 05:52:00,
2013-10-28 23:57:00,23.7,22.0,30.28,ESE,112,5.7,6.9,93,0.00,-SN,,0.00,WeatherDisplay:10.37,2013-10-29 05:57:00,